createdAt,value
2019-06-26T00:01:23.291Z,8.28
2019-06-26T00:05:27.557Z,7.62
2019-06-26T00:09:31.787Z,7.92
2019-06-26T00:13:36.009Z,7.90
2019-06-26T00:17:44.768Z,7.33
2019-06-26T00:21:48.964Z,7.92
2019-06-26T00:25:53.204Z,6.92
2019-06-26T00:29:57.427Z,7.15
2019-06-26T00:34:01.635Z,7.00
2019-06-26T00:38:05.878Z,7.55
2019-06-26T00:42:10.107Z,7.17
2019-06-26T00:46:14.326Z,7.20
2019-06-26T00:50:18.649Z,6.92
2019-06-26T00:54:22.858Z,7.08
2019-06-26T00:58:27.086Z,8.30
2019-06-26T01:02:31.439Z,7.80
2019-06-26T01:06:44.491Z,8.08
2019-06-26T01:10:48.723Z,7.65
2019-06-26T01:14:52.926Z,7.53
2019-06-26T01:18:57.178Z,7.97
2019-06-26T01:23:01.452Z,8.13
2019-06-26T01:27:18.128Z,7.80
2019-06-26T01:31:22.364Z,8.40
2019-06-26T01:35:26.592Z,8.53
2019-06-26T01:39:30.803Z,7.70
2019-06-26T01:43:35.046Z,8.05
2019-06-26T01:47:39.262Z,8.28
2019-06-26T01:51:43.520Z,7.75
2019-06-26T01:55:47.759Z,7.55
2019-06-26T01:59:51.948Z,8.40
2019-06-26T02:03:56.171Z,8.50
2019-06-26T02:08:00.420Z,8.90
2019-06-26T02:12:04.654Z,8.35
2019-06-26T02:16:08.914Z,7.53
2019-06-26T02:20:13.182Z,9.10
2019-06-26T02:24:17.452Z,8.95
2019-06-26T02:28:21.688Z,9.08
2019-06-26T02:32:25.928Z,9.73
2019-06-26T02:36:30.149Z,9.75
2019-06-26T02:40:34.343Z,9.83
2019-06-26T02:44:51.953Z,10.20
2019-06-26T02:48:44.457Z,9.18
2019-06-26T02:52:48.685Z,8.93
2019-06-26T02:56:52.921Z,9.60
2019-06-26T03:00:57.148Z,9.13
2019-06-26T03:05:01.397Z,8.70
2019-06-26T03:09:07.473Z,9.20
2019-06-26T03:13:11.723Z,9.15
2019-06-26T03:17:19.473Z,9.18
2019-06-26T03:21:23.717Z,8.88
2019-06-26T03:25:27.971Z,8.73
2019-06-26T03:29:32.269Z,8.48
2019-06-26T03:33:36.452Z,8.70
2019-06-26T03:37:40.649Z,9.13
2019-06-26T03:41:44.886Z,9.33
2019-06-26T03:45:49.100Z,8.88
2019-06-26T03:49:53.327Z,9.58
2019-06-26T03:53:57.559Z,9.10
2019-06-26T03:58:01.796Z,9.65
2019-06-26T04:02:06.015Z,9.63
2019-06-26T04:06:10.203Z,9.83
2019-06-26T04:10:14.431Z,9.35
2019-06-26T04:14:18.670Z,9.55
2019-06-26T04:18:22.915Z,9.63
2019-06-26T04:22:27.146Z,10.70
2019-06-26T04:26:31.356Z,10.48
2019-06-26T04:30:35.602Z,10.58
2019-06-26T04:34:39.904Z,10.98
2019-06-26T04:38:44.135Z,10.45
2019-06-26T04:42:48.436Z,11.33
2019-06-26T04:46:52.629Z,11.08
2019-06-26T04:50:56.939Z,11.33
2019-06-26T04:55:01.188Z,12.23
2019-06-26T04:59:05.535Z,11.05
2019-06-26T05:03:09.926Z,11.45
2019-06-26T05:07:14.118Z,12.68
2019-06-26T05:11:18.350Z,11.57
2019-06-26T05:15:22.571Z,12.10
2019-06-26T05:19:26.834Z,11.60
2019-06-26T05:23:31.059Z,11.88
2019-06-26T05:27:35.278Z,11.60
2019-06-26T05:31:39.583Z,11.40
2019-06-26T05:35:43.906Z,10.93
2019-06-26T05:39:48.175Z,11.80
2019-06-26T05:43:52.462Z,11.43
2019-06-26T05:47:56.680Z,11.90
2019-06-26T05:52:02.186Z,11.75
2019-06-26T05:56:06.617Z,11.45
2019-06-26T06:00:11.558Z,11.95
2019-06-26T06:04:15.782Z,11.50
2019-06-26T06:08:20.023Z,12.37
2019-06-26T06:12:24.544Z,11.70
2019-06-26T06:16:28.794Z,10.50
2019-06-26T06:20:38.018Z,12.37
2019-06-26T06:24:42.260Z,11.93
2019-06-26T06:28:46.501Z,10.72
2019-06-26T06:32:50.700Z,11.73
2019-06-26T06:36:54.931Z,11.80
2019-06-26T06:40:59.152Z,11.15
2019-06-26T06:45:03.584Z,11.63
2019-06-26T06:49:07.818Z,13.30
2019-06-26T06:53:12.039Z,12.80
2019-06-26T06:57:16.395Z,11.70
2019-06-26T07:01:20.616Z,12.37
2019-06-26T07:05:24.840Z,13.03
2019-06-26T07:09:29.076Z,14.15
2019-06-26T07:13:33.412Z,11.30
2019-06-26T07:17:37.664Z,11.65
2019-06-26T07:21:41.883Z,13.65
2019-06-26T07:25:46.114Z,13.72
2019-06-26T07:29:50.466Z,12.55
2019-06-26T07:33:55.637Z,12.47
2019-06-26T07:38:00.513Z,13.15
2019-06-26T07:42:04.856Z,12.28
2019-06-26T07:46:09.080Z,13.50
2019-06-26T07:50:13.624Z,12.35
2019-06-26T07:54:17.995Z,13.28
2019-06-26T07:58:22.192Z,12.98
2019-06-26T08:02:26.411Z,11.80
2019-06-26T08:06:30.622Z,12.60
2019-06-26T08:10:34.869Z,10.78
2019-06-26T08:14:39.109Z,12.63
2019-06-26T08:18:43.351Z,11.18
2019-06-26T08:22:47.575Z,11.33
2019-06-26T08:26:52.008Z,13.03
2019-06-26T08:30:56.234Z,10.63
2019-06-26T08:35:02.158Z,10.80
2019-06-26T08:39:07.518Z,11.85
2019-06-26T08:43:11.741Z,11.38
2019-06-26T08:47:15.959Z,11.50
2019-06-26T08:51:20.635Z,10.70
2019-06-26T08:55:24.865Z,11.30
2019-06-26T08:59:29.079Z,10.38
2019-06-26T09:03:33.324Z,9.90
2019-06-26T09:07:37.667Z,9.23
2019-06-26T09:11:41.960Z,10.40
2019-06-26T09:15:49.537Z,10.05
2019-06-26T09:19:52.152Z,10.30
2019-06-26T09:23:56.357Z,10.78
2019-06-26T09:28:00.600Z,9.60
2019-06-26T09:32:04.824Z,9.43
2019-06-26T09:36:09.115Z,8.80
2019-06-26T09:40:13.540Z,8.98
2019-06-26T09:44:17.767Z,8.18
2019-06-26T09:48:22.224Z,8.98
2019-06-26T09:52:26.527Z,8.83
2019-06-26T09:56:30.755Z,8.55
2019-06-26T10:00:35.135Z,9.18
2019-06-26T10:04:39.348Z,8.05
2019-06-26T10:08:43.597Z,8.38
2019-06-26T10:12:47.794Z,8.10
2019-06-26T10:16:52.036Z,7.60
2019-06-26T10:20:56.254Z,8.38
2019-06-26T10:25:00.769Z,7.83
2019-06-26T10:29:05.093Z,7.50
2019-06-26T10:33:09.314Z,7.40
2019-06-26T10:37:13.542Z,7.35
2019-06-26T10:41:17.855Z,7.72
2019-06-26T10:45:22.248Z,7.12
2019-06-26T10:49:27.839Z,6.85
2019-06-26T10:53:32.331Z,7.35
2019-06-26T10:57:36.611Z,7.15
2019-06-26T11:01:40.845Z,7.92
2019-06-26T11:05:45.047Z,9.00
2019-06-26T11:10:05.438Z,8.40
2019-06-26T11:14:09.668Z,7.72
2019-06-26T11:18:13.911Z,8.20
2019-06-26T11:22:18.127Z,7.55
2019-06-26T11:26:22.364Z,8.05
2019-06-26T11:30:26.958Z,7.60
2019-06-26T11:34:31.198Z,8.40
2019-06-26T11:38:35.428Z,8.85
2019-06-26T11:42:39.659Z,7.42
2019-06-26T11:46:43.868Z,7.55
2019-06-26T11:50:48.068Z,7.92
2019-06-26T11:55:01.751Z,7.40
2019-06-26T11:58:58.228Z,7.40
2019-06-26T12:03:02.451Z,8.55
2019-06-26T12:07:06.775Z,7.45
2019-06-26T12:11:10.974Z,8.93
2019-06-26T12:15:15.746Z,7.78
2019-06-26T12:19:23.297Z,7.17
2019-06-26T12:23:25.867Z,5.87
2019-06-26T12:27:30.108Z,6.67
2019-06-26T12:31:34.306Z,5.40
2019-06-26T12:35:38.502Z,5.42
2019-06-26T12:39:42.723Z,5.15
2019-06-26T12:43:46.951Z,4.55
2019-06-26T12:47:51.166Z,4.50
2019-06-26T12:51:55.351Z,4.87
2019-06-26T12:55:59.577Z,5.12
2019-06-26T13:00:04.824Z,4.60
2019-06-26T13:04:09.031Z,4.55
2019-06-26T13:08:13.287Z,4.55
2019-06-26T13:12:17.479Z,4.58
2019-06-26T13:16:21.676Z,4.83
2019-06-26T13:20:25.929Z,4.60
2019-06-26T13:24:30.139Z,4.45
2019-06-26T13:28:34.368Z,4.45
2019-06-26T13:32:38.590Z,4.72
2019-06-26T13:36:42.771Z,4.65
2019-06-26T13:40:47.011Z,4.50
2019-06-26T13:44:51.238Z,4.17
2019-06-26T13:48:55.447Z,4.85
2019-06-26T13:52:59.659Z,4.70
2019-06-26T13:57:03.867Z,5.00
2019-06-26T14:01:08.086Z,5.08
2019-06-26T14:05:12.667Z,5.10
2019-06-26T14:09:16.882Z,5.05
2019-06-26T14:13:23.090Z,5.08
2019-06-26T14:17:27.110Z,5.12
2019-06-26T14:21:32.223Z,5.22
2019-06-26T14:25:37.174Z,4.95
2019-06-26T14:29:41.396Z,4.50
2019-06-26T14:33:45.623Z,5.45
2019-06-26T14:37:49.906Z,5.05
2019-06-26T14:41:54.164Z,5.03
2019-06-26T14:45:58.371Z,5.00
2019-06-26T14:50:02.611Z,4.97
2019-06-26T14:54:06.862Z,5.28
2019-06-26T14:58:11.126Z,4.78
2019-06-26T15:02:15.658Z,5.45
2019-06-26T15:06:19.859Z,5.30
2019-06-26T15:10:24.083Z,5.03
2019-06-26T15:14:28.307Z,5.90
2019-06-26T15:18:32.606Z,5.62
2019-06-26T15:22:36.883Z,5.62
2019-06-26T15:26:41.183Z,5.72
2019-06-26T15:30:45.411Z,5.35
2019-06-26T15:34:49.644Z,4.97
2019-06-26T15:38:53.868Z,4.87
2019-06-26T15:42:58.077Z,5.83
2019-06-26T15:47:02.327Z,5.30
2019-06-26T15:51:08.231Z,5.00
2019-06-26T15:55:12.435Z,5.40
2019-06-26T15:59:16.683Z,5.17
2019-06-26T16:03:20.914Z,4.85
2019-06-26T16:07:25.187Z,4.83
2019-06-26T16:11:29.427Z,5.03
2019-06-26T16:15:34.235Z,4.90
2019-06-26T16:19:38.521Z,4.70
2019-06-26T16:23:42.736Z,4.90
2019-06-26T16:27:46.969Z,4.30
2019-06-26T16:31:51.320Z,5.03
2019-06-26T16:35:55.655Z,4.50
2019-06-26T16:40:01.389Z,4.92
2019-06-26T16:44:06.780Z,3.67
2019-06-26T16:48:11.012Z,3.70
2019-06-26T16:52:16.613Z,3.55
2019-06-26T16:56:23.636Z,3.30
2019-06-26T17:00:27.882Z,2.80
2019-06-26T17:04:32.154Z,3.10
2019-06-26T17:08:39.499Z,2.80
2019-06-26T17:12:43.780Z,3.25
2019-06-26T17:16:48.122Z,3.52
2019-06-26T17:20:52.399Z,3.10
2019-06-26T17:24:56.764Z,3.40
2019-06-26T17:29:01.192Z,2.98
2019-06-26T17:33:05.452Z,2.90
2019-06-26T17:37:09.735Z,3.37
2019-06-26T17:41:13.981Z,3.40
2019-06-26T17:45:18.428Z,3.08
2019-06-26T17:49:22.643Z,3.35
2019-06-26T17:53:26.934Z,3.40
2019-06-26T17:57:31.253Z,3.45
2019-06-26T18:01:35.604Z,4.30
2019-06-26T18:05:39.955Z,3.98
2019-06-26T18:09:44.326Z,3.60
2019-06-26T18:13:48.600Z,3.65
2019-06-26T18:17:52.956Z,3.80
2019-06-26T18:21:57.221Z,4.30
2019-06-26T18:26:12.256Z,4.33
2019-06-26T18:30:09.262Z,5.65
2019-06-26T18:34:13.511Z,5.10
2019-06-26T18:38:18.174Z,4.87
2019-06-26T18:42:22.742Z,5.33
2019-06-26T18:46:27.007Z,5.60
2019-06-26T18:50:31.240Z,5.33
2019-06-26T18:54:35.471Z,5.95
2019-06-26T18:58:39.742Z,6.00
2019-06-26T19:02:44.068Z,5.97
2019-06-26T19:06:48.342Z,6.65
2019-06-26T19:10:52.732Z,5.55
2019-06-26T19:14:56.957Z,5.58
2019-06-26T19:19:01.242Z,5.45
2019-06-26T19:23:05.501Z,4.92
2019-06-26T19:27:09.745Z,4.92
2019-06-26T19:31:14.007Z,4.97
2019-06-26T19:35:19.438Z,4.05
2019-06-26T19:39:24.135Z,3.95
2019-06-26T19:43:28.692Z,4.58
2019-06-26T19:47:32.893Z,4.33
2019-06-26T19:51:37.149Z,3.55
2019-06-26T19:55:41.368Z,3.30
2019-06-26T19:59:45.633Z,2.80
2019-06-26T20:03:49.936Z,3.27
2019-06-26T20:07:54.305Z,2.92
2019-06-26T20:11:58.549Z,2.77
2019-06-26T20:16:02.779Z,2.43
2019-06-26T20:20:07.321Z,2.35
2019-06-26T20:24:11.559Z,1.90
2019-06-26T20:28:15.820Z,2.00
2019-06-26T20:32:20.065Z,2.30
2019-06-26T20:36:24.682Z,2.57
2019-06-26T20:40:29.577Z,1.83
2019-06-26T20:44:33.857Z,2.17
2019-06-26T20:48:38.104Z,2.00
2019-06-26T20:52:42.340Z,2.57
2019-06-26T20:56:46.647Z,2.53
2019-06-26T21:00:50.904Z,2.40
2019-06-26T21:04:55.127Z,2.27
2019-06-26T21:08:59.374Z,2.43
2019-06-26T21:13:03.681Z,2.57
2019-06-26T21:17:07.938Z,3.13
2019-06-26T21:21:12.187Z,2.90
2019-06-26T21:25:25.484Z,2.80
2019-06-26T21:29:29.739Z,2.40
2019-06-26T21:33:34.082Z,2.80
2019-06-26T21:37:38.828Z,3.33
2019-06-26T21:41:43.037Z,2.97
2019-06-26T21:45:47.337Z,2.87
2019-06-26T21:50:10.858Z,3.10
2019-06-26T21:54:15.185Z,3.03
2019-06-26T21:58:19.443Z,3.50
2019-06-26T22:02:23.652Z,3.20
2019-06-26T22:06:27.948Z,3.37
2019-06-26T22:10:32.525Z,3.00
2019-06-26T22:14:37.358Z,3.63
2019-06-26T22:18:42.748Z,3.13
2019-06-26T22:22:46.963Z,3.90
2019-06-26T22:26:51.318Z,3.53
2019-06-26T22:30:55.558Z,4.10
2019-06-26T22:34:59.785Z,3.30
2019-06-26T22:39:04.684Z,3.53
2019-06-26T22:43:08.916Z,4.73
2019-06-26T22:47:13.113Z,4.37
2019-06-26T22:51:17.341Z,4.50
2019-06-26T22:55:21.643Z,4.43
2019-06-26T22:59:25.871Z,4.77
2019-06-26T23:03:30.099Z,4.60
2019-06-26T23:07:34.308Z,5.00
2019-06-26T23:11:38.549Z,4.57
2019-06-26T23:15:42.769Z,4.87
2019-06-26T23:19:47.023Z,3.67
2019-06-26T23:23:51.243Z,3.80
2019-06-26T23:27:56.530Z,4.37
2019-06-26T23:32:03.245Z,4.17
2019-06-26T23:36:06.706Z,3.70
2019-06-26T23:40:12.076Z,3.67
2019-06-26T23:44:16.297Z,3.60
2019-06-26T23:48:20.506Z,3.30
2019-06-26T23:52:24.744Z,3.90
2019-06-26T23:56:40.001Z,3.30
